Wednesday, February 21, 2018, 8:07 PM EST
Back to Local

KDKK, Chautauqua County/dunkirk

Location: Dunkirk, NY, United States Lat: 42.5
Local Time: 8:07 PM EST ( 1:07 GMT) Lon: -79.283
Time Zone: US/Eastern Elev: 692 ft

Show me the last for .
Show Decoded

2018-02-21 19:53 METAR KDKK 220053Z AUTO 00000KT 10SM CLR 02/M01 A3057 RMK AO2 SLP356 T00171011 =
2018-02-21 18:53 METAR KDKK 212353Z AUTO 00000KT 10SM SCT120 02/M01 A3056 RMK AO2 SLP352 60000
                 I6000 T00171011 10039 20017 51025 =
2018-02-21 17:53 METAR KDKK 212253Z AUTO 30005KT 10SM OVC065 02/M01 A3054 RMK AO2 SLP347
                 T00171011 =
2018-02-21 16:53 METAR KDKK 212153Z AUTO 30007KT 10SM OVC060 02/00 A3052 RMK AO2 UPE2057 SLP340
                 P0000 T00170000 =
2018-02-21 15:53 METAR KDKK 212053Z AUTO 29006KT 10SM UP BKN041 BKN048 OVC065 02/01 A3049 RMK AO2
                 RAE44UPB1954E1956B28 SLP326 P0000 60000 I3000 T00170011 51031 =
2018-02-21 14:53 METAR KDKK 211953Z AUTO 27007KT 10SM -RA OVC036 02/02 A3045 RMK AO2
                 UPE04B13E33RAB04E13B33 SLP313 P0000 I1000 T00220022 =
2018-02-21 14:19 METAR KDKK 211919Z AUTO 29007KT 10SM UP SCT014 OVC035 02/02 A3045 RMK AO2
                 UPE04B13RAB04E13 P0000 I1000 T00220022 =
2018-02-21 14:05 METAR KDKK 211905Z AUTO 27007KT 7SM -RA SCT006 OVC014 03/02 A3045 RMK AO2
                 UPE04RAB04 PRESRR P0000 T00280022 =
2018-02-21 13:53 METAR KDKK 211853Z AUTO 28007KT 4SM UP BR BKN006 OVC010 03/02 A3043 RMK AO2
                 RAE1758B23E39UPB39 CIG 003V009 SLP308 P0000 T00280022 =
2018-02-21 13:45 METAR KDKK 211845Z AUTO 28006KT 3SM UP BR OVC006 03/03 A3042 RMK AO2
                 RAE1758B23E39UPB39 CIG 002V009 P0000 T00280028 =
2018-02-21 13:29 METAR KDKK 211829Z AUTO 28007KT 2 1/2SM -RA BR OVC003 03/03 A3041 RMK AO2
                 RAE1758B23 P0000 T00330033 =
2018-02-21 13:10 METAR KDKK 211810Z AUTO 31006KT 2 1/2SM BR BKN004 OVC009 04/04 A3041 RMK AO2
                 RAE1758 P0000 T00390039 =
2018-02-21 13:00 METAR KDKK 211800Z AUTO 34005KT 2 1/2SM BR OVC006 04/04 A3040 RMK AO2 RAE1758
                 P0000 T00390039 =
2018-02-21 12:53 METAR KDKK 211753Z AUTO 34005KT 3SM -RA BR BKN006 OVC010 04/03 A3039 RMK AO2
                 PRESRR SLP294 P0000 60011 T00390033 10189 20039 51053 =
2018-02-21 11:53 METAR KDKK 211653Z AUTO 03006KT 8SM -RA OVC006 04/04 A3035 RMK AO2 SLP281 P0003
                 T00390039 =
2018-02-21 11:28 METAR KDKK 211628Z AUTO 03006KT 4SM -RA BR OVC005 04/04 A3033 RMK AO2 P0003
                 T00390039 =
2018-02-21 11:10 METAR KDKK 211610Z AUTO 03007KT 2SM -RA BR OVC003 04/04 A3032 RMK AO2 P0002
                 T00390039 =
2018-02-21 11:01 METAR KDKK 211601Z AUTO 02007KT 1 3/4SM -RA BR OVC003 04/04 A3032 RMK AO2 P0001
                 T00440044 =
2018-02-21 10:53 METAR KDKK 211553Z AUTO 01009KT 4SM -RA BR OVC003 04/04 A3031 RMK AO2 WSHFT 1518
                 PRESRR SLP265 P0005 T00440044 =
2018-02-21 10:38 METAR KDKK 211538Z AUTO 02012KT 4SM -RA BR OVC002 05/04 A3027 RMK AO2 WSHFT 1518
                 P0005 T00500044 =
2018-02-21 10:03 METAR KDKK 211503Z AUTO 26010KT 2SM RA BR OVC003 11/11 A3024 RMK AO2 P0002
                 T01060106 =
2018-02-21 09:53 METAR KDKK 211453Z AUTO 26010KT 3SM -RA BR OVC003 11/11 A3023 RMK AO2 RAB04
                 PRESRR SLP237 P0003 60003 T01110106 51065 =
2018-02-21 09:38 METAR KDKK 211438Z AUTO 25008KT 4SM -RA BR OVC004 12/11 A3021 RMK AO2 RAB04 CIG
                 003V008 P0002 T01170111 =
2018-02-21 08:53 METAR KDKK 211353Z AUTO 00000KT 10SM OVC007 12/12 A3015 RMK AO2 RAE05 SLP211
                 P0000 T01220117 =
2018-02-21 08:29 METAR KDKK 211329Z AUTO 22005KT 10SM BKN006 BKN025 OVC044 12/11 A3015 RMK AO2
                 RAE05 P0000 T01170111 =
2018-02-21 08:19 METAR KDKK 211319Z AUTO 23006KT 10SM SCT006 OVC044 12/11 A3015 RMK AO2 RAE05
                 P0000 T01170106 =
2018-02-21 07:53 METAR KDKK 211253Z AUTO 27008KT 10SM -RA OVC045 13/10 A3012 RMK AO2 PK WND
                 29027/1236 WSHFT 1225 RAB53 SLP199 P0000 T01280100 =
2018-02-21 07:45 METAR KDKK 211245Z AUTO 27010G27KT 10SM BKN045 OVC095 13/09 A3012 RMK AO2 PK WND
                 29027/1236 WSHFT 1225 PRESRR T01330094 =
2018-02-21 06:53 METAR KDKK 211153Z AUTO 20017G26KT 10SM SCT100 18/11 A3004 RMK AO2 PK WND
                 19026/1152 SLP169 70009 T01830111 10200 20128 58007 =
2018-02-21 05:53 METAR KDKK 211053Z AUTO 27005KT 10SM BKN095 14/10 A3006 RMK AO2 SLP178 T01390100
                 =
2018-02-21 04:53 METAR KDKK 210953Z AUTO 23009G16KT 200V270 10SM FEW090 18/11 A3005 RMK AO2
                 SLP175 T01780106 =
2018-02-21 03:53 METAR KDKK 210853Z AUTO 20012KT 10SM FEW090 19/12 A3006 RMK AO2 SLP175 T01890117
                 58005 =
2018-02-21 02:53 METAR KDKK 210753Z AUTO 20011G19KT 10SM FEW060 BKN080 19/12 A3007 RMK AO2 SLP182
                 T01940117 =
2018-02-21 01:53 METAR KDKK 210653Z AUTO 20017G22KT 10SM SCT065 19/11 A3007 RMK AO2 SLP180
                 T01940111 =
2018-02-21 00:53 METAR KDKK 210553Z AUTO 20015G24KT 10SM SCT080 19/11 A3007 RMK AO2 SLP181
                 T01940111 10200 20183 50002 =
2018-02-20 23:53 METAR KDKK 210453Z AUTO 19013KT 10SM CLR 19/12 A3008 RMK AO2 SLP183 T01890117
                 402170144 =
2018-02-20 22:53 METAR KDKK 210353Z AUTO 19013G20KT 10SM CLR 19/12 A3008 RMK AO2 SLP183 T01890117
                 =
2018-02-20 21:53 METAR KDKK 210253Z AUTO 18017G23KT 10SM CLR 19/12 A3007 RMK AO2 SLP180 T01940122
                 56010 =
2018-02-20 20:53 METAR KDKK 210153Z AUTO 17018G25KT 10SM CLR 20/13 A3007 RMK AO2 SLP181 T02000128
                 =

Support USWX by starting your Amazon purchase here.